Weather at Deutsch-Ordens-Spital Heliport

Public forecast

Using degrees Celsius for public forecast. Weather courtesy of forecast.io.

Closest aviation weather report (METAR) to Deutsch-Ordens-Spital Heliport

Closest report is Klagenfurt Airport, 18.5 nm (34.3 km) S.

2024/05/30 06:50 (retrieved 28 minutes ago)

LOWK 300650Z AUTO VRB01KT CAVOK 17/11 Q1009 NOSIG

Closest aviation forecast (TAF) to Deutsch-Ordens-Spital Heliport

Closest forecast is Klagenfurt Airport, 18.5 nm (34.3 km) S.

2024/05/30 06:18 (retrieved 60 minutes ago)

TAF LOWK 300515Z 3006/3106 VRB02KT CAVOK TX20/3011Z TN13/3103Z TEMPO 3010/3016 SHRA FEW020 BKN030 FEW040CB PROB40 TEMPO 3011/3014 27015G25KT TSRA TEMPO 3023/3103 -RA BKN008 BECMG 3103/3105 -RA TEMPO 3103/3106 4000 SHRA BKN008 FEW020CB